Terminal Aerodrome Forecast
Issued by NWS Cleveland, OH

Home | Current Version | Previous Version | Graphics & Text | Print | Product List | Glossary On
Versions: 1 2 3 4 5 6 7 8 9 10 11 12
935
FTUS41 KCLE 211140
TAFTOL
TAF
KTOL 211140Z 2112/2212 36005KT P6SM VCSH OVC070
     FM211500 35005KT P6SM BKN090
     FM220200 32003KT P6SM SCT080 BKN200=

USA.gov is the U.S. government's official web portal to all federal, state and local government web resources and services.